sensor_id;sensor_type;location;lat;lon;timestamp;P1;durP1;ratioP1;P2;durP2;ratioP2
70459;SDS011;57920;54.796;9.430;2023-02-18T00:01:25;4.07;;;2.70;;
70459;SDS011;57920;54.796;9.430;2023-02-18T00:03:51;6.37;;;3.00;;
70459;SDS011;57920;54.796;9.430;2023-02-18T00:06:22;6.80;;;3.30;;
70459;SDS011;57920;54.796;9.430;2023-02-18T00:08:49;5.40;;;2.70;;
70459;SDS011;57920;54.796;9.430;2023-02-18T00:11:16;7.00;;;3.43;;
70459;SDS011;57920;54.796;9.430;2023-02-18T00:13:43;7.43;;;3.07;;
70459;SDS011;57920;54.796;9.430;2023-02-18T00:16:17;8.47;;;2.90;;
70459;SDS011;57920;54.796;9.430;2023-02-18T00:18:43;7.20;;;2.80;;
70459;SDS011;57920;54.796;9.430;2023-02-18T00:21:08;7.23;;;3.30;;
70459;SDS011;57920;54.796;9.430;2023-02-18T00:23:34;6.23;;;3.10;;
70459;SDS011;57920;54.796;9.430;2023-02-18T00:26:09;7.00;;;2.83;;
70459;SDS011;57920;54.796;9.430;2023-02-18T00:28:40;6.07;;;3.00;;
70459;SDS011;57920;54.796;9.430;2023-02-18T00:31:06;5.90;;;3.07;;
70459;SDS011;57920;54.796;9.430;2023-02-18T00:33:33;4.80;;;2.37;;
70459;SDS011;57920;54.796;9.430;2023-02-18T00:36:06;5.17;;;2.70;;
70459;SDS011;57920;54.796;9.430;2023-02-18T00:38:34;10.27;;;3.70;;
70459;SDS011;57920;54.796;9.430;2023-02-18T00:41:00;6.20;;;2.97;;
70459;SDS011;57920;54.796;9.430;2023-02-18T00:43:26;7.60;;;3.47;;
70459;SDS011;57920;54.796;9.430;2023-02-18T00:45:52;9.83;;;3.77;;
70459;SDS011;57920;54.796;9.430;2023-02-18T00:48:18;5.73;;;3.10;;
70459;SDS011;57920;54.796;9.430;2023-02-18T00:50:43;6.87;;;3.40;;
70459;SDS011;57920;54.796;9.430;2023-02-18T00:53:10;6.23;;;3.20;;
70459;SDS011;57920;54.796;9.430;2023-02-18T00:55:39;7.70;;;3.23;;
70459;SDS011;57920;54.796;9.430;2023-02-18T00:58:05;4.83;;;2.73;;
70459;SDS011;57920;54.796;9.430;2023-02-18T01:00:31;7.37;;;3.37;;
70459;SDS011;57920;54.796;9.430;2023-02-18T01:02:56;5.07;;;3.00;;
70459;SDS011;57920;54.796;9.430;2023-02-18T01:05:22;7.00;;;3.10;;
70459;SDS011;57920;54.796;9.430;2023-02-18T01:07:48;7.07;;;3.57;;
70459;SDS011;57920;54.796;9.430;2023-02-18T01:10:13;7.27;;;3.00;;
70459;SDS011;57920;54.796;9.430;2023-02-18T01:12:39;5.53;;;3.17;;
70459;SDS011;57920;54.796;9.430;2023-02-18T01:15:05;7.67;;;3.50;;
70459;SDS011;57920;54.796;9.430;2023-02-18T01:17:32;8.63;;;3.03;;
70459;SDS011;57920;54.796;9.430;2023-02-18T01:19:57;5.33;;;2.57;;
70459;SDS011;57920;54.796;9.430;2023-02-18T01:22:23;6.37;;;3.00;;
70459;SDS011;57920;54.796;9.430;2023-02-18T01:24:49;10.07;;;3.90;;
70459;SDS011;57920;54.796;9.430;2023-02-18T01:27:15;6.27;;;2.80;;
70459;SDS011;57920;54.796;9.430;2023-02-18T01:29:40;5.73;;;2.90;;
70459;SDS011;57920;54.796;9.430;2023-02-18T01:32:06;4.67;;;2.50;;
70459;SDS011;57920;54.796;9.430;2023-02-18T01:34:32;5.87;;;3.13;;
70459;SDS011;57920;54.796;9.430;2023-02-18T01:36:57;5.53;;;2.67;;
70459;SDS011;57920;54.796;9.430;2023-02-18T01:39:23;9.20;;;3.13;;
70459;SDS011;57920;54.796;9.430;2023-02-18T01:41:49;4.50;;;2.67;;
70459;SDS011;57920;54.796;9.430;2023-02-18T01:46:44;5.97;;;2.70;;
70459;SDS011;57920;54.796;9.430;2023-02-18T01:49:11;5.70;;;2.93;;
70459;SDS011;57920;54.796;9.430;2023-02-18T01:51:42;8.50;;;3.17;;
70459;SDS011;57920;54.796;9.430;2023-02-18T01:59:23;6.57;;;3.10;;
70459;SDS011;57920;54.796;9.430;2023-02-18T02:01:52;7.87;;;3.57;;
70459;SDS011;57920;54.796;9.430;2023-02-18T02:04:19;5.57;;;2.70;;
70459;SDS011;57920;54.796;9.430;2023-02-18T02:06:45;5.60;;;2.60;;
70459;SDS011;57920;54.796;9.430;2023-02-18T02:09:12;5.90;;;2.77;;
70459;SDS011;57920;54.796;9.430;2023-02-18T02:11:50;4.83;;;2.97;;
70459;SDS011;57920;54.796;9.430;2023-02-18T02:39:37;6.40;;;2.70;;
70459;SDS011;57920;54.796;9.430;2023-02-18T02:44:56;6.50;;;2.87;;
70459;SDS011;57920;54.796;9.430;2023-02-18T02:47:37;3.67;;;2.00;;
70459;SDS011;57920;54.796;9.430;2023-02-18T02:50:25;5.80;;;2.63;;
70459;SDS011;57920;54.796;9.430;2023-02-18T02:53:15;8.20;;;3.20;;
70459;SDS011;57920;54.796;9.430;2023-02-18T02:55:46;5.90;;;2.50;;
70459;SDS011;57920;54.796;9.430;2023-02-18T02:58:15;5.00;;;2.50;;
70459;SDS011;57920;54.796;9.430;2023-02-18T03:00:54;3.73;;;2.67;;
70459;SDS011;57920;54.796;9.430;2023-02-18T03:03:26;3.07;;;1.90;;
70459;SDS011;57920;54.796;9.430;2023-02-18T03:09:08;5.50;;;2.03;;
70459;SDS011;57920;54.796;9.430;2023-02-18T03:11:50;6.23;;;2.60;;
70459;SDS011;57920;54.796;9.430;2023-02-18T03:14:27;4.87;;;2.63;;
70459;SDS011;57920;54.796;9.430;2023-02-18T03:17:01;4.77;;;2.33;;
70459;SDS011;57920;54.796;9.430;2023-02-18T03:19:34;4.77;;;2.17;;
70459;SDS011;57920;54.796;9.430;2023-02-18T03:22:08;3.90;;;2.53;;
70459;SDS011;57920;54.796;9.430;2023-02-18T03:24:51;4.10;;;2.07;;
70459;SDS011;57920;54.796;9.430;2023-02-18T03:27:26;6.67;;;2.70;;
70459;SDS011;57920;54.796;9.430;2023-02-18T03:30:16;6.07;;;2.63;;
70459;SDS011;57920;54.796;9.430;2023-02-18T03:32:52;2.83;;;2.03;;
70459;SDS011;57920;54.796;9.430;2023-02-18T03:35:21;7.90;;;2.70;;
70459;SDS011;57920;54.796;9.430;2023-02-18T03:40:37;4.20;;;2.13;;
70459;SDS011;57920;54.796;9.430;2023-02-18T03:43:03;3.90;;;1.93;;
70459;SDS011;57920;54.796;9.430;2023-02-18T03:45:28;5.70;;;3.10;;
70459;SDS011;57920;54.796;9.430;2023-02-18T03:47:54;9.43;;;2.57;;
70459;SDS011;57920;54.796;9.430;2023-02-18T03:50:20;4.53;;;2.47;;
70459;SDS011;57920;54.796;9.430;2023-02-18T03:52:45;7.37;;;2.40;;
70459;SDS011;57920;54.796;9.430;2023-02-18T03:55:11;7.27;;;3.20;;
70459;SDS011;57920;54.796;9.430;2023-02-18T03:57:37;4.03;;;2.30;;
70459;SDS011;57920;54.796;9.430;2023-02-18T04:00:03;5.90;;;2.67;;
70459;SDS011;57920;54.796;9.430;2023-02-18T04:02:30;4.03;;;2.27;;
70459;SDS011;57920;54.796;9.430;2023-02-18T04:04:56;3.63;;;1.90;;
70459;SDS011;57920;54.796;9.430;2023-02-18T04:07:22;6.20;;;2.20;;
70459;SDS011;57920;54.796;9.430;2023-02-18T04:09:47;5.27;;;2.17;;
70459;SDS011;57920;54.796;9.430;2023-02-18T04:12:13;5.63;;;2.73;;
70459;SDS011;57920;54.796;9.430;2023-02-18T04:14:39;5.77;;;2.30;;
70459;SDS011;57920;54.796;9.430;2023-02-18T04:17:04;6.63;;;3.07;;
70459;SDS011;57920;54.796;9.430;2023-02-18T04:19:30;9.27;;;2.80;;
70459;SDS011;57920;54.796;9.430;2023-02-18T04:21:56;5.60;;;2.60;;
70459;SDS011;57920;54.796;9.430;2023-02-18T04:24:21;6.40;;;2.33;;
70459;SDS011;57920;54.796;9.430;2023-02-18T04:26:47;8.10;;;2.67;;
70459;SDS011;57920;54.796;9.430;2023-02-18T04:29:12;6.73;;;2.50;;
70459;SDS011;57920;54.796;9.430;2023-02-18T04:31:38;6.63;;;2.30;;
70459;SDS011;57920;54.796;9.430;2023-02-18T04:34:03;6.27;;;2.67;;
70459;SDS011;57920;54.796;9.430;2023-02-18T04:36:29;5.67;;;2.80;;
70459;SDS011;57920;54.796;9.430;2023-02-18T04:38:54;4.40;;;2.30;;
70459;SDS011;57920;54.796;9.430;2023-02-18T04:41:20;5.23;;;2.40;;
70459;SDS011;57920;54.796;9.430;2023-02-18T04:43:45;5.57;;;2.60;;
70459;SDS011;57920;54.796;9.430;2023-02-18T04:46:11;4.80;;;2.57;;
70459;SDS011;57920;54.796;9.430;2023-02-18T04:48:37;4.90;;;2.40;;
70459;SDS011;57920;54.796;9.430;2023-02-18T04:51:02;5.97;;;2.50;;
70459;SDS011;57920;54.796;9.430;2023-02-18T04:53:28;6.47;;;3.00;;
70459;SDS011;57920;54.796;9.430;2023-02-18T04:55:54;6.37;;;2.67;;
70459;SDS011;57920;54.796;9.430;2023-02-18T04:58:20;4.70;;;2.30;;
70459;SDS011;57920;54.796;9.430;2023-02-18T05:00:46;5.67;;;2.63;;
70459;SDS011;57920;54.796;9.430;2023-02-18T05:03:12;6.17;;;2.70;;
70459;SDS011;57920;54.796;9.430;2023-02-18T05:05:38;6.70;;;2.67;;
70459;SDS011;57920;54.796;9.430;2023-02-18T05:08:03;3.53;;;2.33;;
70459;SDS011;57920;54.796;9.430;2023-02-18T05:10:29;6.33;;;2.47;;
70459;SDS011;57920;54.796;9.430;2023-02-18T05:12:55;5.27;;;1.87;;
70459;SDS011;57920;54.796;9.430;2023-02-18T05:15:20;3.87;;;2.30;;
70459;SDS011;57920;54.796;9.430;2023-02-18T05:17:46;4.40;;;1.90;;
70459;SDS011;57920;54.796;9.430;2023-02-18T05:20:11;6.37;;;2.67;;
70459;SDS011;57920;54.796;9.430;2023-02-18T05:22:37;5.23;;;2.43;;
70459;SDS011;57920;54.796;9.430;2023-02-18T05:25:03;5.13;;;2.60;;
70459;SDS011;57920;54.796;9.430;2023-02-18T05:27:29;5.27;;;2.60;;
70459;SDS011;57920;54.796;9.430;2023-02-18T05:29:55;4.97;;;2.33;;
70459;SDS011;57920;54.796;9.430;2023-02-18T05:32:21;6.70;;;2.73;;
70459;SDS011;57920;54.796;9.430;2023-02-18T05:34:47;7.10;;;3.00;;
70459;SDS011;57920;54.796;9.430;2023-02-18T05:37:12;6.43;;;2.80;;
70459;SDS011;57920;54.796;9.430;2023-02-18T05:39:39;6.23;;;2.30;;
70459;SDS011;57920;54.796;9.430;2023-02-18T05:42:05;6.07;;;2.90;;
70459;SDS011;57920;54.796;9.430;2023-02-18T05:44:31;6.10;;;2.40;;
70459;SDS011;57920;54.796;9.430;2023-02-18T05:47:07;4.97;;;2.47;;
70459;SDS011;57920;54.796;9.430;2023-02-18T05:49:35;6.53;;;2.27;;
70459;SDS011;57920;54.796;9.430;2023-02-18T05:52:01;6.33;;;2.70;;
70459;SDS011;57920;54.796;9.430;2023-02-18T05:54:28;4.87;;;2.37;;
70459;SDS011;57920;54.796;9.430;2023-02-18T05:56:54;6.03;;;2.00;;
70459;SDS011;57920;54.796;9.430;2023-02-18T05:59:20;4.97;;;2.83;;
70459;SDS011;57920;54.796;9.430;2023-02-18T06:01:46;4.70;;;2.23;;
70459;SDS011;57920;54.796;9.430;2023-02-18T06:04:12;5.30;;;2.57;;
70459;SDS011;57920;54.796;9.430;2023-02-18T06:06:38;6.10;;;2.20;;
70459;SDS011;57920;54.796;9.430;2023-02-18T06:09:04;4.77;;;2.43;;
70459;SDS011;57920;54.796;9.430;2023-02-18T06:11:30;3.30;;;1.90;;
70459;SDS011;57920;54.796;9.430;2023-02-18T06:13:56;4.93;;;1.97;;
70459;SDS011;57920;54.796;9.430;2023-02-18T06:16:22;4.73;;;2.30;;
70459;SDS011;57920;54.796;9.430;2023-02-18T06:18:47;6.73;;;2.57;;
70459;SDS011;57920;54.796;9.430;2023-02-18T06:21:13;3.77;;;2.27;;
70459;SDS011;57920;54.796;9.430;2023-02-18T06:23:39;5.10;;;2.67;;
70459;SDS011;57920;54.796;9.430;2023-02-18T06:26:04;6.00;;;2.40;;
70459;SDS011;57920;54.796;9.430;2023-02-18T06:28:30;4.47;;;2.10;;
70459;SDS011;57920;54.796;9.430;2023-02-18T06:30:55;5.00;;;1.87;;
70459;SDS011;57920;54.796;9.430;2023-02-18T06:33:21;6.13;;;2.03;;
70459;SDS011;57920;54.796;9.430;2023-02-18T06:35:53;4.67;;;2.50;;
70459;SDS011;57920;54.796;9.430;2023-02-18T06:38:23;4.60;;;2.50;;
70459;SDS011;57920;54.796;9.430;2023-02-18T06:40:49;8.07;;;2.97;;
70459;SDS011;57920;54.796;9.430;2023-02-18T06:43:15;3.47;;;1.83;;
70459;SDS011;57920;54.796;9.430;2023-02-18T06:45:40;6.50;;;2.77;;
70459;SDS011;57920;54.796;9.430;2023-02-18T06:48:06;6.20;;;2.60;;
70459;SDS011;57920;54.796;9.430;2023-02-18T06:50:31;5.37;;;2.43;;
70459;SDS011;57920;54.796;9.430;2023-02-18T06:52:57;5.23;;;2.40;;
70459;SDS011;57920;54.796;9.430;2023-02-18T06:55:23;6.20;;;2.07;;
70459;SDS011;57920;54.796;9.430;2023-02-18T06:57:49;6.53;;;2.10;;
70459;SDS011;57920;54.796;9.430;2023-02-18T07:00:15;5.80;;;2.00;;
70459;SDS011;57920;54.796;9.430;2023-02-18T07:02:41;5.40;;;2.53;;
70459;SDS011;57920;54.796;9.430;2023-02-18T07:05:07;6.53;;;2.73;;
70459;SDS011;57920;54.796;9.430;2023-02-18T07:07:33;4.57;;;2.23;;
70459;SDS011;57920;54.796;9.430;2023-02-18T07:09:58;5.67;;;1.93;;
70459;SDS011;57920;54.796;9.430;2023-02-18T07:12:24;4.47;;;2.03;;
70459;SDS011;57920;54.796;9.430;2023-02-18T07:14:49;5.10;;;1.80;;
70459;SDS011;57920;54.796;9.430;2023-02-18T07:17:15;4.43;;;2.07;;
70459;SDS011;57920;54.796;9.430;2023-02-18T07:19:40;4.60;;;2.00;;
70459;SDS011;57920;54.796;9.430;2023-02-18T07:22:06;5.50;;;2.67;;
70459;SDS011;57920;54.796;9.430;2023-02-18T07:24:32;3.20;;;1.93;;
70459;SDS011;57920;54.796;9.430;2023-02-18T07:26:57;7.53;;;2.10;;
70459;SDS011;57920;54.796;9.430;2023-02-18T07:29:23;4.07;;;2.20;;
70459;SDS011;57920;54.796;9.430;2023-02-18T07:31:48;4.63;;;2.00;;
70459;SDS011;57920;54.796;9.430;2023-02-18T07:34:14;4.87;;;2.00;;
70459;SDS011;57920;54.796;9.430;2023-02-18T07:36:39;4.53;;;1.83;;
70459;SDS011;57920;54.796;9.430;2023-02-18T07:39:05;5.10;;;2.00;;
70459;SDS011;57920;54.796;9.430;2023-02-18T07:41:30;3.83;;;2.10;;
70459;SDS011;57920;54.796;9.430;2023-02-18T07:43:56;3.67;;;2.10;;
70459;SDS011;57920;54.796;9.430;2023-02-18T07:46:21;4.43;;;2.00;;
70459;SDS011;57920;54.796;9.430;2023-02-18T07:48:47;5.17;;;1.90;;
70459;SDS011;57920;54.796;9.430;2023-02-18T07:51:13;4.23;;;2.00;;
70459;SDS011;57920;54.796;9.430;2023-02-18T07:53:38;4.70;;;2.07;;
70459;SDS011;57920;54.796;9.430;2023-02-18T07:56:05;6.77;;;1.80;;
70459;SDS011;57920;54.796;9.430;2023-02-18T07:58:31;2.80;;;1.80;;
70459;SDS011;57920;54.796;9.430;2023-02-18T08:00:59;2.70;;;1.67;;
70459;SDS011;57920;54.796;9.430;2023-02-18T08:03:29;2.77;;;1.77;;
70459;SDS011;57920;54.796;9.430;2023-02-18T08:05:56;3.03;;;1.87;;
70459;SDS011;57920;54.796;9.430;2023-02-18T08:08:26;2.30;;;1.60;;
70459;SDS011;57920;54.796;9.430;2023-02-18T08:10:54;3.87;;;1.67;;
70459;SDS011;57920;54.796;9.430;2023-02-18T08:13:22;2.17;;;1.13;;
70459;SDS011;57920;54.796;9.430;2023-02-18T08:15:47;2.47;;;1.30;;
70459;SDS011;57920;54.796;9.430;2023-02-18T08:18:14;3.20;;;1.10;;
70459;SDS011;57920;54.796;9.430;2023-02-18T08:20:44;2.40;;;1.30;;
70459;SDS011;57920;54.796;9.430;2023-02-18T08:23:11;3.47;;;1.43;;
70459;SDS011;57920;54.796;9.430;2023-02-18T08:25:37;3.47;;;1.20;;
70459;SDS011;57920;54.796;9.430;2023-02-18T08:28:03;3.80;;;1.60;;
70459;SDS011;57920;54.796;9.430;2023-02-18T08:30:29;1.37;;;1.10;;
70459;SDS011;57920;54.796;9.430;2023-02-18T08:32:54;3.93;;;1.80;;
70459;SDS011;57920;54.796;9.430;2023-02-18T08:35:20;2.23;;;1.40;;
70459;SDS011;57920;54.796;9.430;2023-02-18T08:37:45;2.30;;;1.30;;
70459;SDS011;57920;54.796;9.430;2023-02-18T08:40:11;1.70;;;1.00;;
70459;SDS011;57920;54.796;9.430;2023-02-18T08:42:38;2.60;;;1.27;;
70459;SDS011;57920;54.796;9.430;2023-02-18T08:45:04;1.70;;;1.10;;
70459;SDS011;57920;54.796;9.430;2023-02-18T08:47:30;2.97;;;1.23;;
70459;SDS011;57920;54.796;9.430;2023-02-18T08:49:56;3.70;;;1.27;;
70459;SDS011;57920;54.796;9.430;2023-02-18T08:52:22;2.53;;;1.07;;
70459;SDS011;57920;54.796;9.430;2023-02-18T08:54:48;2.77;;;1.10;;
70459;SDS011;57920;54.796;9.430;2023-02-18T08:57:14;1.97;;;1.03;;
70459;SDS011;57920;54.796;9.430;2023-02-18T08:59:40;2.10;;;0.97;;
70459;SDS011;57920;54.796;9.430;2023-02-18T09:02:06;2.17;;;1.10;;
70459;SDS011;57920;54.796;9.430;2023-02-18T09:04:31;1.90;;;1.00;;
70459;SDS011;57920;54.796;9.430;2023-02-18T09:06:57;3.00;;;1.13;;
70459;SDS011;57920;54.796;9.430;2023-02-18T09:09:23;2.73;;;1.07;;
70459;SDS011;57920;54.796;9.430;2023-02-18T09:11:48;0.80;;;0.63;;
70459;SDS011;57920;54.796;9.430;2023-02-18T09:14:14;1.53;;;0.90;;
70459;SDS011;57920;54.796;9.430;2023-02-18T09:16:40;3.20;;;1.07;;
70459;SDS011;57920;54.796;9.430;2023-02-18T09:19:06;1.90;;;0.90;;
70459;SDS011;57920;54.796;9.430;2023-02-18T09:21:32;1.87;;;1.10;;
70459;SDS011;57920;54.796;9.430;2023-02-18T09:23:58;1.10;;;0.90;;
70459;SDS011;57920;54.796;9.430;2023-02-18T09:26:24;2.37;;;1.10;;
70459;SDS011;57920;54.796;9.430;2023-02-18T09:28:51;1.27;;;1.00;;
70459;SDS011;57920;54.796;9.430;2023-02-18T09:31:19;1.60;;;0.87;;
70459;SDS011;57920;54.796;9.430;2023-02-18T09:33:48;2.57;;;1.10;;
70459;SDS011;57920;54.796;9.430;2023-02-18T09:36:15;2.20;;;0.90;;
70459;SDS011;57920;54.796;9.430;2023-02-18T09:38:42;1.20;;;0.70;;
70459;SDS011;57920;54.796;9.430;2023-02-18T09:41:09;2.13;;;0.70;;
70459;SDS011;57920;54.796;9.430;2023-02-18T09:44:00;0.87;;;0.70;;
70459;SDS011;57920;54.796;9.430;2023-02-18T09:46:30;1.27;;;0.60;;
70459;SDS011;57920;54.796;9.430;2023-02-18T09:49:03;1.60;;;0.90;;
70459;SDS011;57920;54.796;9.430;2023-02-18T09:51:32;3.40;;;1.07;;
70459;SDS011;57920;54.796;9.430;2023-02-18T09:53:58;1.30;;;0.90;;
70459;SDS011;57920;54.796;9.430;2023-02-18T09:56:28;3.93;;;0.90;;
70459;SDS011;57920;54.796;9.430;2023-02-18T09:58:57;1.20;;;0.73;;
70459;SDS011;57920;54.796;9.430;2023-02-18T10:01:28;1.00;;;0.60;;
70459;SDS011;57920;54.796;9.430;2023-02-18T10:04:03;2.20;;;1.00;;
70459;SDS011;57920;54.796;9.430;2023-02-18T10:06:36;1.43;;;0.87;;
70459;SDS011;57920;54.796;9.430;2023-02-18T10:09:11;1.43;;;0.60;;
70459;SDS011;57920;54.796;9.430;2023-02-18T10:11:59;0.77;;;0.60;;
70459;SDS011;57920;54.796;9.430;2023-02-18T10:14:35;0.73;;;0.63;;
70459;SDS011;57920;54.796;9.430;2023-02-18T10:17:01;0.93;;;0.60;;
70459;SDS011;57920;54.796;9.430;2023-02-18T10:19:29;2.03;;;1.30;;
70459;SDS011;57920;54.796;9.430;2023-02-18T10:21:59;2.30;;;1.00;;
70459;SDS011;57920;54.796;9.430;2023-02-18T10:24:35;1.33;;;0.77;;
70459;SDS011;57920;54.796;9.430;2023-02-18T10:27:07;1.30;;;1.00;;
70459;SDS011;57920;54.796;9.430;2023-02-18T10:29:34;1.30;;;0.70;;
70459;SDS011;57920;54.796;9.430;2023-02-18T10:32:14;0.80;;;0.53;;
70459;SDS011;57920;54.796;9.430;2023-02-18T10:34:48;1.57;;;0.90;;
70459;SDS011;57920;54.796;9.430;2023-02-18T10:38:30;3.47;;;1.27;;
70459;SDS011;57920;54.796;9.430;2023-02-18T10:40:48;1.37;;;0.67;;
70459;SDS011;57920;54.796;9.430;2023-02-18T10:43:44;3.77;;;1.00;;
70459;SDS011;57920;54.796;9.430;2023-02-18T10:52:13;1.37;;;1.00;;
70459;SDS011;57920;54.796;9.430;2023-02-18T10:54:57;2.47;;;0.90;;
70459;SDS011;57920;54.796;9.430;2023-02-18T10:57:25;2.97;;;1.07;;
70459;SDS011;57920;54.796;9.430;2023-02-18T11:02:34;1.77;;;0.90;;
70459;SDS011;57920;54.796;9.430;2023-02-18T11:05:05;1.83;;;0.60;;
70459;SDS011;57920;54.796;9.430;2023-02-18T11:07:53;2.83;;;1.13;;
70459;SDS011;57920;54.796;9.430;2023-02-18T11:10:25;2.03;;;0.70;;
70459;SDS011;57920;54.796;9.430;2023-02-18T11:13:03;2.03;;;0.80;;
70459;SDS011;57920;54.796;9.430;2023-02-18T11:15:31;1.40;;;0.63;;
70459;SDS011;57920;54.796;9.430;2023-02-18T11:18:11;1.40;;;0.73;;
70459;SDS011;57920;54.796;9.430;2023-02-18T11:20:56;2.23;;;0.87;;
70459;SDS011;57920;54.796;9.430;2023-02-18T11:23:24;2.20;;;0.60;;
70459;SDS011;57920;54.796;9.430;2023-02-18T11:26:05;2.57;;;0.83;;
70459;SDS011;57920;54.796;9.430;2023-02-18T11:28:43;1.67;;;0.43;;
70459;SDS011;57920;54.796;9.430;2023-02-18T11:31:20;1.10;;;0.77;;
70459;SDS011;57920;54.796;9.430;2023-02-18T11:33:49;1.00;;;0.50;;
70459;SDS011;57920;54.796;9.430;2023-02-18T11:36:28;0.90;;;0.43;;
70459;SDS011;57920;54.796;9.430;2023-02-18T11:39:03;0.60;;;0.50;;
70459;SDS011;57920;54.796;9.430;2023-02-18T11:44:01;1.20;;;0.77;;
70459;SDS011;57920;54.796;9.430;2023-02-18T11:46:30;0.37;;;0.30;;
70459;SDS011;57920;54.796;9.430;2023-02-18T11:48:55;0.87;;;0.60;;
70459;SDS011;57920;54.796;9.430;2023-02-18T11:51:44;1.10;;;0.50;;
70459;SDS011;57920;54.796;9.430;2023-02-18T11:57:09;0.63;;;0.50;;
70459;SDS011;57920;54.796;9.430;2023-02-18T11:59:42;0.40;;;0.40;;
70459;SDS011;57920;54.796;9.430;2023-02-18T12:04:40;0.97;;;0.50;;
70459;SDS011;57920;54.796;9.430;2023-02-18T12:07:25;1.57;;;0.50;;
70459;SDS011;57920;54.796;9.430;2023-02-18T12:10:04;0.83;;;0.60;;
70459;SDS011;57920;54.796;9.430;2023-02-18T12:19:07;0.50;;;0.40;;
70459;SDS011;57920;54.796;9.430;2023-02-18T12:27:02;0.33;;;0.33;;
70459;SDS011;57920;54.796;9.430;2023-02-18T12:32:38;0.60;;;0.50;;
70459;SDS011;57920;54.796;9.430;2023-02-18T12:46:32;0.50;;;0.37;;
70459;SDS011;57920;54.796;9.430;2023-02-18T12:49:31;0.77;;;0.53;;
70459;SDS011;57920;54.796;9.430;2023-02-18T12:52:14;2.10;;;0.60;;
70459;SDS011;57920;54.796;9.430;2023-02-18T13:09:01;0.30;;;0.30;;
70459;SDS011;57920;54.796;9.430;2023-02-18T13:14:33;0.37;;;0.30;;
70459;SDS011;57920;54.796;9.430;2023-02-18T13:17:11;0.50;;;0.30;;
70459;SDS011;57920;54.796;9.430;2023-02-18T13:22:48;0.37;;;0.30;;
70459;SDS011;57920;54.796;9.430;2023-02-18T13:25:14;0.23;;;0.20;;
70459;SDS011;57920;54.796;9.430;2023-02-18T13:27:43;1.80;;;0.60;;
70459;SDS011;57920;54.796;9.430;2023-02-18T13:30:42;0.90;;;0.50;;
70459;SDS011;57920;54.796;9.430;2023-02-18T13:38:50;1.53;;;0.40;;
70459;SDS011;57920;54.796;9.430;2023-02-18T13:41:17;0.37;;;0.37;;
70459;SDS011;57920;54.796;9.430;2023-02-18T13:43:44;0.50;;;0.40;;
70459;SDS011;57920;54.796;9.430;2023-02-18T13:56:45;1.07;;;0.50;;
70459;SDS011;57920;54.796;9.430;2023-02-18T13:59:22;1.33;;;0.30;;
70459;SDS011;57920;54.796;9.430;2023-02-18T14:04:49;0.40;;;0.40;;
70459;SDS011;57920;54.796;9.430;2023-02-18T14:09:50;2.20;;;0.40;;
70459;SDS011;57920;54.796;9.430;2023-02-18T14:17:48;0.73;;;0.40;;
70459;SDS011;57920;54.796;9.430;2023-02-18T14:28:42;0.53;;;0.37;;
70459;SDS011;57920;54.796;9.430;2023-02-18T14:36:29;0.77;;;0.40;;
70459;SDS011;57920;54.796;9.430;2023-02-18T14:45:28;0.50;;;0.40;;
70459;SDS011;57920;54.796;9.430;2023-02-18T14:48:23;0.40;;;0.30;;
70459;SDS011;57920;54.796;9.430;2023-02-18T14:50:53;0.67;;;0.30;;
70459;SDS011;57920;54.796;9.430;2023-02-18T14:53:21;0.83;;;0.43;;
70459;SDS011;57920;54.796;9.430;2023-02-18T14:55:49;0.37;;;0.27;;
70459;SDS011;57920;54.796;9.430;2023-02-18T14:58:25;0.40;;;0.20;;
70459;SDS011;57920;54.796;9.430;2023-02-18T15:00:54;1.20;;;0.30;;
70459;SDS011;57920;54.796;9.430;2023-02-18T15:03:20;0.60;;;0.50;;
70459;SDS011;57920;54.796;9.430;2023-02-18T15:05:47;0.57;;;0.50;;
70459;SDS011;57920;54.796;9.430;2023-02-18T15:08:17;0.67;;;0.40;;
70459;SDS011;57920;54.796;9.430;2023-02-18T15:16:11;0.43;;;0.40;;
70459;SDS011;57920;54.796;9.430;2023-02-18T15:18:52;0.73;;;0.60;;
70459;SDS011;57920;54.796;9.430;2023-02-18T15:21:25;0.37;;;0.30;;
70459;SDS011;57920;54.796;9.430;2023-02-18T15:23:53;0.60;;;0.20;;
70459;SDS011;57920;54.796;9.430;2023-02-18T15:26:22;0.60;;;0.40;;
70459;SDS011;57920;54.796;9.430;2023-02-18T15:29:04;0.67;;;0.40;;
70459;SDS011;57920;54.796;9.430;2023-02-18T15:31:36;0.73;;;0.50;;
70459;SDS011;57920;54.796;9.430;2023-02-18T15:34:14;0.17;;;0.17;;
70459;SDS011;57920;54.796;9.430;2023-02-18T15:36:54;1.80;;;0.40;;
70459;SDS011;57920;54.796;9.430;2023-02-18T15:39:21;1.90;;;0.43;;
70459;SDS011;57920;54.796;9.430;2023-02-18T15:41:50;0.63;;;0.30;;
70459;SDS011;57920;54.796;9.430;2023-02-18T15:44:23;0.50;;;0.50;;
70459;SDS011;57920;54.796;9.430;2023-02-18T15:46:51;0.50;;;0.23;;
70459;SDS011;57920;54.796;9.430;2023-02-18T15:49:19;1.93;;;0.40;;
70459;SDS011;57920;54.796;9.430;2023-02-18T15:51:47;0.90;;;0.60;;
70459;SDS011;57920;54.796;9.430;2023-02-18T15:54:14;0.70;;;0.33;;
70459;SDS011;57920;54.796;9.430;2023-02-18T15:56:43;1.00;;;0.60;;
70459;SDS011;57920;54.796;9.430;2023-02-18T15:59:18;0.60;;;0.47;;
70459;SDS011;57920;54.796;9.430;2023-02-18T16:01:55;0.73;;;0.40;;
70459;SDS011;57920;54.796;9.430;2023-02-18T16:04:36;1.33;;;0.50;;
70459;SDS011;57920;54.796;9.430;2023-02-18T16:09:49;1.03;;;0.40;;
70459;SDS011;57920;54.796;9.430;2023-02-18T16:12:21;0.33;;;0.33;;
70459;SDS011;57920;54.796;9.430;2023-02-18T16:14:53;1.10;;;0.50;;
70459;SDS011;57920;54.796;9.430;2023-02-18T16:17:20;0.43;;;0.43;;
70459;SDS011;57920;54.796;9.430;2023-02-18T16:19:51;0.80;;;0.50;;
70459;SDS011;57920;54.796;9.430;2023-02-18T16:22:31;0.87;;;0.47;;
70459;SDS011;57920;54.796;9.430;2023-02-18T16:27:45;0.87;;;0.47;;
70459;SDS011;57920;54.796;9.430;2023-02-18T16:30:15;0.90;;;0.60;;
70459;SDS011;57920;54.796;9.430;2023-02-18T16:32:43;1.33;;;0.40;;
70459;SDS011;57920;54.796;9.430;2023-02-18T16:35:10;1.87;;;0.80;;
70459;SDS011;57920;54.796;9.430;2023-02-18T16:37:36;0.60;;;0.37;;
70459;SDS011;57920;54.796;9.430;2023-02-18T16:40:02;0.97;;;0.47;;
70459;SDS011;57920;54.796;9.430;2023-02-18T16:42:46;0.87;;;0.50;;
70459;SDS011;57920;54.796;9.430;2023-02-18T16:45:12;2.13;;;0.50;;
70459;SDS011;57920;54.796;9.430;2023-02-18T16:47:38;0.67;;;0.50;;
70459;SDS011;57920;54.796;9.430;2023-02-18T16:50:04;2.40;;;0.70;;
70459;SDS011;57920;54.796;9.430;2023-02-18T16:52:38;1.03;;;0.67;;
70459;SDS011;57920;54.796;9.430;2023-02-18T16:55:25;0.53;;;0.43;;
70459;SDS011;57920;54.796;9.430;2023-02-18T16:57:51;1.03;;;0.60;;
70459;SDS011;57920;54.796;9.430;2023-02-18T17:00:19;1.83;;;0.93;;
70459;SDS011;57920;54.796;9.430;2023-02-18T17:02:46;1.30;;;0.70;;
70459;SDS011;57920;54.796;9.430;2023-02-18T17:05:17;2.57;;;0.70;;
70459;SDS011;57920;54.796;9.430;2023-02-18T17:07:45;1.20;;;0.50;;
70459;SDS011;57920;54.796;9.430;2023-02-18T17:10:13;0.87;;;0.43;;
70459;SDS011;57920;54.796;9.430;2023-02-18T17:12:39;0.73;;;0.50;;
70459;SDS011;57920;54.796;9.430;2023-02-18T17:17:45;0.57;;;0.47;;
70459;SDS011;57920;54.796;9.430;2023-02-18T17:20:11;1.60;;;0.60;;
70459;SDS011;57920;54.796;9.430;2023-02-18T17:22:38;1.67;;;0.80;;
70459;SDS011;57920;54.796;9.430;2023-02-18T17:25:09;2.13;;;0.60;;
70459;SDS011;57920;54.796;9.430;2023-02-18T17:27:39;1.10;;;0.63;;
70459;SDS011;57920;54.796;9.430;2023-02-18T17:30:05;1.63;;;0.77;;
70459;SDS011;57920;54.796;9.430;2023-02-18T17:32:31;1.10;;;0.77;;
70459;SDS011;57920;54.796;9.430;2023-02-18T17:34:57;2.20;;;0.80;;
70459;SDS011;57920;54.796;9.430;2023-02-18T17:37:22;0.87;;;0.57;;
70459;SDS011;57920;54.796;9.430;2023-02-18T17:39:48;0.97;;;0.60;;
70459;SDS011;57920;54.796;9.430;2023-02-18T17:42:13;1.23;;;0.67;;
70459;SDS011;57920;54.796;9.430;2023-02-18T17:44:39;2.17;;;0.83;;
70459;SDS011;57920;54.796;9.430;2023-02-18T17:47:05;1.27;;;0.77;;